createdAt,value
2022-08-28T00:01:33.399Z,17.40
2022-08-28T00:04:01.115Z,17.40
2022-08-28T00:06:28.277Z,17.40
2022-08-28T00:08:56.383Z,17.40
2022-08-28T00:11:23.451Z,17.40
2022-08-28T00:13:50.914Z,17.40
2022-08-28T00:16:18.816Z,17.50
2022-08-28T00:18:47.089Z,17.40
2022-08-28T00:21:14.707Z,17.50
2022-08-28T00:23:43.567Z,17.40
2022-08-28T00:26:11.576Z,17.40
2022-08-28T00:28:38.451Z,17.40
2022-08-28T00:31:05.528Z,17.40
2022-08-28T00:33:34.979Z,17.40
2022-08-28T00:36:03.349Z,17.40
2022-08-28T00:38:30.960Z,17.40
2022-08-28T00:41:03.976Z,17.30
2022-08-28T00:43:42.838Z,17.30
2022-08-28T00:46:19.572Z,17.30
2022-08-28T00:48:47.499Z,17.30
2022-08-28T00:51:35.030Z,17.30
2022-08-28T00:54:07.377Z,17.30
2022-08-28T00:56:37.778Z,17.30
2022-08-28T00:59:15.548Z,17.30
2022-08-28T01:01:43.822Z,17.30
2022-08-28T01:04:16.889Z,17.20
2022-08-28T01:06:46.266Z,17.30
2022-08-28T01:09:13.224Z,17.20
2022-08-28T01:11:44.038Z,17.20
2022-08-28T01:14:14.078Z,17.20
2022-08-28T01:16:43.276Z,17.20
2022-08-28T01:19:31.147Z,17.20
2022-08-28T01:22:25.213Z,17.20
2022-08-28T01:24:54.122Z,17.20
2022-08-28T01:27:29.802Z,17.10
2022-08-28T01:29:57.628Z,17.10
2022-08-28T01:32:45.789Z,17.00
2022-08-28T01:35:16.979Z,17.00
2022-08-28T01:37:45.741Z,17.00
2022-08-28T01:40:20.330Z,17.00
2022-08-28T01:42:48.241Z,17.00
2022-08-28T01:45:20.883Z,16.90
2022-08-28T01:47:48.542Z,16.90
2022-08-28T01:50:23.181Z,16.90
2022-08-28T01:52:53.110Z,17.00
2022-08-28T01:55:21.565Z,17.00
2022-08-28T01:57:56.187Z,17.00
2022-08-28T02:00:27.528Z,17.00
2022-08-28T02:02:58.360Z,17.00
2022-08-28T02:05:28.389Z,17.00
2022-08-28T02:07:57.718Z,17.00
2022-08-28T02:10:28.396Z,17.00
2022-08-28T02:12:59.068Z,17.00
2022-08-28T02:15:27.986Z,17.00
2022-08-28T02:18:00.172Z,17.00
2022-08-28T02:20:29.164Z,17.00
2022-08-28T02:22:57.668Z,17.00
2022-08-28T02:25:29.394Z,17.00
2022-08-28T02:27:57.018Z,17.00
2022-08-28T02:30:26.567Z,17.00
2022-08-28T02:32:53.732Z,17.00
2022-08-28T02:35:22.312Z,17.00
2022-08-28T02:37:57.659Z,17.00
2022-08-28T02:40:28.049Z,17.00
2022-08-28T02:42:58.999Z,17.00
2022-08-28T02:45:53.291Z,17.00
2022-08-28T02:48:21.422Z,17.00
2022-08-28T02:50:49.839Z,17.00
2022-08-28T02:53:23.892Z,16.90
2022-08-28T02:55:51.848Z,16.90
2022-08-28T02:58:19.649Z,16.90
2022-08-28T03:00:46.847Z,16.90
2022-08-28T03:03:16.749Z,16.90
2022-08-28T03:05:43.762Z,16.90
2022-08-28T03:08:11.840Z,16.90
2022-08-28T03:10:41.995Z,16.90
2022-08-28T03:13:26.852Z,16.90
2022-08-28T03:15:57.936Z,16.90
2022-08-28T03:18:30.234Z,16.90
2022-08-28T03:20:57.575Z,16.90
2022-08-28T03:23:27.288Z,16.90
2022-08-28T03:26:07.904Z,16.90
2022-08-28T03:28:40.674Z,16.90
2022-08-28T03:31:12.516Z,16.90
2022-08-28T03:33:42.629Z,16.90
2022-08-28T03:36:12.117Z,16.90
2022-08-28T03:38:39.272Z,16.90
2022-08-28T03:41:11.633Z,16.90
2022-08-28T03:43:40.223Z,16.90
2022-08-28T03:46:12.529Z,16.90
2022-08-28T03:48:42.227Z,16.90
2022-08-28T03:51:18.970Z,16.90
2022-08-28T03:53:50.046Z,16.90
2022-08-28T03:56:24.660Z,16.90
2022-08-28T03:58:53.895Z,16.90
2022-08-28T04:01:21.458Z,16.90
2022-08-28T04:03:48.457Z,16.90
2022-08-28T04:06:15.937Z,16.90
2022-08-28T04:08:43.036Z,16.90
2022-08-28T04:11:10.083Z,16.90
2022-08-28T04:13:36.892Z,16.80
2022-08-28T04:16:10.851Z,16.80
2022-08-28T04:18:41.056Z,16.80
2022-08-28T04:21:14.246Z,16.80
2022-08-28T04:23:43.317Z,16.80
2022-08-28T04:26:13.473Z,16.80
2022-08-28T04:28:41.948Z,16.80
2022-08-28T04:31:09.148Z,16.80
2022-08-28T04:33:38.024Z,16.80
2022-08-28T04:36:08.476Z,16.80
2022-08-28T04:38:36.813Z,16.80
2022-08-28T04:41:07.943Z,16.80
2022-08-28T04:43:35.056Z,16.80
2022-08-28T04:46:11.631Z,16.80
2022-08-28T04:48:39.504Z,16.80
2022-08-28T04:51:09.351Z,16.80
2022-08-28T04:53:37.884Z,16.80
2022-08-28T04:56:07.642Z,16.80
2022-08-28T04:58:35.095Z,16.70
2022-08-28T05:01:15.631Z,16.70
2022-08-28T05:03:42.646Z,16.70
2022-08-28T05:06:09.519Z,16.70
2022-08-28T05:08:36.387Z,16.70
2022-08-28T05:11:24.561Z,16.70
2022-08-28T05:14:15.828Z,16.70
2022-08-28T05:16:46.052Z,16.70
2022-08-28T05:19:13.178Z,16.70
2022-08-28T05:21:40.159Z,16.70
2022-08-28T05:24:07.743Z,16.70
2022-08-28T05:26:35.614Z,16.70
2022-08-28T05:29:06.904Z,16.70
2022-08-28T05:31:35.430Z,16.70
2022-08-28T05:34:04.471Z,16.70
2022-08-28T05:36:35.440Z,16.70
2022-08-28T05:39:10.385Z,16.70
2022-08-28T05:41:39.602Z,16.70
2022-08-28T05:44:09.424Z,16.70
2022-08-28T05:46:39.583Z,16.80
2022-08-28T05:49:10.028Z,16.80
2022-08-28T05:51:40.145Z,16.80
2022-08-28T05:54:06.921Z,16.90
2022-08-28T05:56:36.536Z,17.00
2022-08-28T05:59:05.922Z,17.10
2022-08-28T06:01:35.677Z,17.10
2022-08-28T06:04:05.871Z,17.20
2022-08-28T06:06:39.259Z,17.30
2022-08-28T06:09:16.239Z,17.30
2022-08-28T06:11:44.630Z,17.40
2022-08-28T06:14:16.528Z,17.40
2022-08-28T06:16:50.469Z,17.40
2022-08-28T06:19:18.158Z,17.50
2022-08-28T06:21:46.954Z,17.50
2022-08-28T06:24:14.477Z,17.50
2022-08-28T06:26:41.777Z,17.60
2022-08-28T06:29:12.743Z,17.60
2022-08-28T06:31:40.476Z,17.70
2022-08-28T06:34:08.958Z,17.80
2022-08-28T06:36:39.387Z,17.80
2022-08-28T06:39:07.101Z,17.90
2022-08-28T06:41:40.791Z,17.90
2022-08-28T06:44:09.554Z,17.90
2022-08-28T06:46:36.707Z,18.00
2022-08-28T06:49:08.306Z,18.00
2022-08-28T06:51:35.880Z,18.00
2022-08-28T06:54:03.099Z,18.10
2022-08-28T06:56:29.964Z,18.20
2022-08-28T06:58:58.484Z,18.10
2022-08-28T07:01:32.908Z,18.10
2022-08-28T07:04:03.978Z,18.20
2022-08-28T07:06:35.319Z,18.20
2022-08-28T07:09:05.313Z,18.30
2022-08-28T07:11:34.576Z,18.40
2022-08-28T07:14:02.282Z,18.40
2022-08-28T07:16:40.412Z,18.60
2022-08-28T07:19:10.499Z,18.60
2022-08-28T07:21:41.625Z,18.80
2022-08-28T07:24:10.493Z,18.80
2022-08-28T07:26:40.777Z,18.90
2022-08-28T07:29:11.553Z,19.00
2022-08-28T07:31:45.374Z,19.00
2022-08-28T07:34:14.030Z,19.10
2022-08-28T07:36:41.910Z,19.20
2022-08-28T07:39:10.986Z,19.30
2022-08-28T07:41:40.308Z,19.40
2022-08-28T07:44:28.020Z,19.60
2022-08-28T07:47:00.521Z,19.80
2022-08-28T07:49:27.495Z,20.00
2022-08-28T07:51:55.323Z,20.30
2022-08-28T07:54:23.172Z,20.60
2022-08-28T07:56:51.664Z,21.10
2022-08-28T07:59:19.444Z,21.60
2022-08-28T08:01:48.008Z,22.00
2022-08-28T08:04:17.999Z,22.10
2022-08-28T08:06:45.127Z,22.00
2022-08-28T08:09:15.100Z,22.10
2022-08-28T08:11:42.651Z,22.10
2022-08-28T08:14:10.960Z,22.30
2022-08-28T08:16:40.886Z,22.40
2022-08-28T08:19:10.054Z,22.30
2022-08-28T08:21:37.972Z,22.40
2022-08-28T08:24:05.833Z,22.70
2022-08-28T08:26:33.716Z,22.80
2022-08-28T08:29:01.047Z,22.60
2022-08-28T08:31:32.496Z,22.50
2022-08-28T08:34:02.018Z,22.50
2022-08-28T08:36:30.031Z,22.50
2022-08-28T08:38:59.529Z,22.60
2022-08-28T08:41:51.122Z,22.60
2022-08-28T08:44:34.553Z,22.70
2022-08-28T08:47:22.813Z,22.80
2022-08-28T08:49:56.884Z,23.00
2022-08-28T08:52:57.699Z,23.00
2022-08-28T08:55:41.905Z,23.20
2022-08-28T08:58:19.964Z,23.40
2022-08-28T09:01:14.015Z,23.60
2022-08-28T09:03:55.461Z,23.80
2022-08-28T09:06:56.423Z,24.00
2022-08-28T09:09:40.983Z,24.20
2022-08-28T09:12:29.920Z,24.30
2022-08-28T09:15:23.553Z,24.60
2022-08-28T09:17:54.493Z,25.20
2022-08-28T09:20:30.197Z,25.30
2022-08-28T09:22:59.863Z,25.40
2022-08-28T09:25:45.088Z,25.60
2022-08-28T09:28:19.068Z,26.00
2022-08-28T09:30:59.022Z,26.60
2022-08-28T09:33:37.987Z,27.30
2022-08-28T09:36:36.368Z,27.50
2022-08-28T09:39:05.892Z,28.00
2022-08-28T09:41:54.004Z,28.30
2022-08-28T09:44:20.887Z,28.80
2022-08-28T09:46:51.035Z,29.40
2022-08-28T09:49:29.998Z,29.60
2022-08-28T09:52:25.029Z,29.80
2022-08-28T09:54:53.508Z,30.40
2022-08-28T09:57:20.382Z,31.00
2022-08-28T09:59:47.903Z,31.40
2022-08-28T10:02:35.349Z,31.80
2022-08-28T10:05:16.532Z,32.00
2022-08-28T10:07:46.669Z,31.10
2022-08-28T10:10:17.988Z,30.80
2022-08-28T10:13:16.214Z,31.00
2022-08-28T10:15:58.061Z,31.70
2022-08-28T10:18:30.782Z,32.20
2022-08-28T10:21:04.006Z,32.00
2022-08-28T10:24:28.318Z,31.70
2022-08-28T10:27:09.416Z,31.30
2022-08-28T10:29:49.492Z,31.00
2022-08-28T10:32:36.025Z,30.80
2022-08-28T10:35:13.643Z,30.80
2022-08-28T10:37:52.532Z,30.70
2022-08-28T10:40:53.486Z,30.70
2022-08-28T10:43:31.522Z,30.50
2022-08-28T10:46:04.062Z,30.00
2022-08-28T10:48:41.312Z,29.70
2022-08-28T10:51:35.239Z,29.40
2022-08-28T10:54:14.359Z,29.10
2022-08-28T10:56:46.359Z,28.90
2022-08-28T10:59:25.233Z,28.70
2022-08-28T11:01:52.611Z,28.50
2022-08-28T11:04:25.693Z,28.80
2022-08-28T11:07:04.696Z,29.10
2022-08-28T11:09:46.090Z,28.90
2022-08-28T11:12:19.804Z,28.50
2022-08-28T11:14:50.072Z,28.20
2022-08-28T11:17:25.136Z,28.20
2022-08-28T11:20:10.112Z,28.70
2022-08-28T11:22:39.141Z,29.60
2022-08-28T11:25:26.521Z,30.30
2022-08-28T11:28:23.835Z,31.10
2022-08-28T11:31:06.042Z,31.80
2022-08-28T11:33:45.888Z,32.60
2022-08-28T11:36:21.538Z,33.20
2022-08-28T11:38:54.116Z,33.80
2022-08-28T11:41:36.571Z,34.30
2022-08-28T11:44:09.190Z,34.80
2022-08-28T11:46:38.750Z,35.10
2022-08-28T11:49:31.492Z,34.70
2022-08-28T11:52:23.409Z,34.40
2022-08-28T11:55:25.100Z,33.60
2022-08-28T12:01:06.774Z,32.50
2022-08-28T12:03:54.501Z,32.70
2022-08-28T12:06:49.725Z,32.80
2022-08-28T12:09:46.271Z,32.40
2022-08-28T12:12:46.192Z,31.70
2022-08-28T12:15:28.298Z,31.10
2022-08-28T12:18:13.129Z,30.60
2022-08-28T12:21:12.754Z,30.30
2022-08-28T12:24:07.211Z,30.10
2022-08-28T12:26:41.411Z,30.00
2022-08-28T12:29:29.661Z,29.90
2022-08-28T12:32:13.048Z,30.10
2022-08-28T12:34:58.162Z,30.40
2022-08-28T12:37:30.810Z,30.70
2022-08-28T12:40:39.097Z,31.30
2022-08-28T12:43:09.141Z,31.50
2022-08-28T12:45:54.738Z,31.50
2022-08-28T12:48:47.316Z,31.30
2022-08-28T12:51:20.854Z,31.10
2022-08-28T12:53:55.145Z,30.90
2022-08-28T12:56:24.390Z,30.60
2022-08-28T12:58:54.650Z,30.30
2022-08-28T13:01:31.676Z,30.00
2022-08-28T13:04:03.144Z,29.80
2022-08-28T13:06:37.316Z,29.70
2022-08-28T13:09:23.756Z,29.50
2022-08-28T13:11:51.688Z,29.30
2022-08-28T13:14:38.831Z,29.50
2022-08-28T13:17:05.804Z,30.00
2022-08-28T13:19:34.270Z,30.10
2022-08-28T13:22:04.780Z,30.10
2022-08-28T13:24:31.566Z,30.40
2022-08-28T13:27:04.165Z,30.60
2022-08-28T13:29:31.769Z,30.70
2022-08-28T13:32:02.524Z,30.80
2022-08-28T13:34:33.760Z,31.00
2022-08-28T13:37:17.463Z,31.20
2022-08-28T13:39:47.180Z,31.40
2022-08-28T13:42:16.789Z,31.60
2022-08-28T13:44:56.680Z,31.60
2022-08-28T13:47:23.495Z,31.30
2022-08-28T13:49:50.491Z,30.40
2022-08-28T13:52:17.743Z,30.00
2022-08-28T13:54:45.712Z,29.90
2022-08-28T13:57:13.662Z,29.50
2022-08-28T13:59:41.962Z,29.20
2022-08-28T14:02:32.419Z,28.90
2022-08-28T14:04:59.792Z,28.80
2022-08-28T14:07:26.893Z,28.80
2022-08-28T14:09:56.366Z,29.10
2022-08-28T14:12:24.953Z,29.30
2022-08-28T14:14:59.513Z,29.10
2022-08-28T14:17:26.666Z,29.10
2022-08-28T14:19:53.596Z,29.40
2022-08-28T14:22:20.414Z,29.40
2022-08-28T14:24:47.175Z,29.30
2022-08-28T14:27:17.791Z,29.00
2022-08-28T14:29:45.650Z,28.60
2022-08-28T14:32:12.504Z,28.40
2022-08-28T14:34:39.381Z,28.50
2022-08-28T14:37:06.398Z,28.70
2022-08-28T14:39:42.373Z,28.50
2022-08-28T14:42:12.996Z,28.50
2022-08-28T14:44:41.247Z,28.50
2022-08-28T14:47:08.714Z,28.30
2022-08-28T14:49:35.869Z,28.50
2022-08-28T14:52:03.316Z,28.60
2022-08-28T14:54:30.118Z,28.40
2022-08-28T14:56:57.211Z,28.10
2022-08-28T14:59:26.894Z,27.80
2022-08-28T15:01:55.694Z,27.60
2022-08-28T15:04:24.437Z,27.40
2022-08-28T15:06:56.878Z,27.30
2022-08-28T15:09:23.845Z,27.20
2022-08-28T15:11:51.000Z,27.40
2022-08-28T15:14:17.978Z,27.50
2022-08-28T15:16:48.313Z,27.80
2022-08-28T15:19:17.999Z,28.00
2022-08-28T15:21:51.246Z,28.00
2022-08-28T15:24:20.366Z,28.00
2022-08-28T15:26:47.425Z,27.90
2022-08-28T15:29:15.261Z,27.80
2022-08-28T15:31:44.442Z,27.50
2022-08-28T15:34:18.533Z,27.30
2022-08-28T15:36:54.863Z,27.30
2022-08-28T15:39:46.032Z,27.20
2022-08-28T15:42:14.130Z,27.30
2022-08-28T15:44:41.007Z,27.40
2022-08-28T15:47:08.402Z,27.50
2022-08-28T15:49:43.328Z,27.50
2022-08-28T15:52:15.542Z,27.50
2022-08-28T15:54:49.680Z,27.50
2022-08-28T15:57:18.086Z,27.40
2022-08-28T15:59:49.628Z,27.40
2022-08-28T16:02:21.052Z,27.40
2022-08-28T16:04:48.502Z,27.40
2022-08-28T16:07:15.768Z,27.30
2022-08-28T16:09:42.667Z,27.10
2022-08-28T16:12:10.504Z,26.90
2022-08-28T16:14:37.390Z,26.70
2022-08-28T16:17:06.040Z,26.50
2022-08-28T16:19:42.112Z,26.40
2022-08-28T16:22:11.390Z,26.20
2022-08-28T16:24:38.532Z,26.10
2022-08-28T16:29:53.033Z,25.70
2022-08-28T16:32:20.108Z,25.70
2022-08-28T16:34:47.316Z,25.50
2022-08-28T16:35:49.245Z,25.90
2022-08-28T16:37:14.320Z,25.40
2022-08-28T16:39:46.447Z,25.40
2022-08-28T16:42:13.296Z,25.20
2022-08-28T16:44:40.140Z,25.20
2022-08-28T16:47:07.231Z,25.10
2022-08-28T16:49:34.069Z,25.10
2022-08-28T16:52:00.958Z,25.00
2022-08-28T16:54:27.822Z,24.90
2022-08-28T16:56:54.905Z,24.90
2022-08-28T16:59:24.161Z,24.80
2022-08-28T17:01:52.938Z,24.80
2022-08-28T17:04:21.211Z,24.60
2022-08-28T17:06:48.219Z,24.40
2022-08-28T17:09:15.134Z,24.40
2022-08-28T17:11:42.103Z,24.30
2022-08-28T17:14:11.003Z,24.20
2022-08-28T17:16:38.304Z,24.10
2022-08-28T17:19:05.132Z,24.00
2022-08-28T17:21:50.366Z,23.90
2022-08-28T17:24:17.213Z,23.70
2022-08-28T17:26:44.502Z,23.60
2022-08-28T17:29:12.135Z,23.50
2022-08-28T17:31:39.767Z,23.40
2022-08-28T17:34:10.453Z,23.30
2022-08-28T17:36:39.720Z,23.10
2022-08-28T17:39:11.582Z,23.00
2022-08-28T17:41:40.174Z,22.90
2022-08-28T17:44:07.373Z,22.80
2022-08-28T17:46:37.705Z,22.70
2022-08-28T17:49:06.472Z,22.60
2022-08-28T17:51:42.607Z,22.40
2022-08-28T17:54:12.714Z,22.30
2022-08-28T17:56:40.249Z,22.20
2022-08-28T17:59:07.710Z,22.10
2022-08-28T18:01:34.871Z,22.00
2022-08-28T18:04:01.864Z,21.90
2022-08-28T18:06:28.645Z,21.70
2022-08-28T18:08:55.612Z,21.60
2022-08-28T18:11:22.604Z,21.40
2022-08-28T18:13:49.500Z,21.30
2022-08-28T18:16:16.729Z,21.20
2022-08-28T18:18:43.971Z,21.00
2022-08-28T18:21:12.274Z,20.90
2022-08-28T18:23:39.873Z,20.70
2022-08-28T18:26:07.831Z,20.70
2022-08-28T18:28:34.926Z,20.60
2022-08-28T18:31:02.674Z,20.40
2022-08-28T18:33:29.687Z,20.30
2022-08-28T18:35:56.895Z,20.20
2022-08-28T18:38:27.750Z,20.10
2022-08-28T18:40:55.324Z,20.00
2022-08-28T18:43:22.519Z,19.90
2022-08-28T18:45:49.683Z,19.80
2022-08-28T18:48:16.744Z,19.70
2022-08-28T18:50:46.443Z,19.60
2022-08-28T18:53:15.021Z,19.60
2022-08-28T18:55:41.831Z,19.50
2022-08-28T18:58:11.092Z,19.40
2022-08-28T19:00:42.980Z,19.30
2022-08-28T19:03:10.213Z,19.20
2022-08-28T19:05:38.736Z,19.10
2022-08-28T19:08:05.988Z,19.10
2022-08-28T19:10:34.856Z,19.00
2022-08-28T19:13:02.499Z,18.90
2022-08-28T19:15:30.197Z,18.90
2022-08-28T19:17:58.024Z,18.80
2022-08-28T19:20:26.445Z,18.70
2022-08-28T19:22:53.507Z,18.60
2022-08-28T19:25:27.705Z,18.60
2022-08-28T19:27:59.174Z,18.50
2022-08-28T19:30:28.606Z,18.40
2022-08-28T19:32:56.128Z,18.40
2022-08-28T19:35:24.599Z,18.20
2022-08-28T19:37:52.563Z,18.20
2022-08-28T19:40:20.643Z,18.10
2022-08-28T19:42:49.707Z,18.00
2022-08-28T19:45:17.702Z,17.90
2022-08-28T19:47:44.838Z,17.90
2022-08-28T19:50:12.763Z,17.80
2022-08-28T19:52:40.712Z,17.80
2022-08-28T19:55:08.774Z,17.70
2022-08-28T19:57:35.679Z,17.60
2022-08-28T20:00:04.035Z,17.50
2022-08-28T20:02:31.312Z,17.50
2022-08-28T20:04:58.852Z,17.50
2022-08-28T20:07:25.747Z,17.30
2022-08-28T20:09:52.628Z,17.30
2022-08-28T20:12:19.669Z,17.30
2022-08-28T20:14:47.505Z,17.20
2022-08-28T20:17:14.394Z,17.20
2022-08-28T20:19:41.500Z,17.10
2022-08-28T20:22:08.472Z,17.00
2022-08-28T20:24:35.298Z,16.90
2022-08-28T20:27:02.174Z,17.00
2022-08-28T20:29:30.122Z,16.90
2022-08-28T20:31:57.215Z,16.80
2022-08-28T20:34:24.014Z,16.70
2022-08-28T20:36:52.425Z,16.70
2022-08-28T20:39:20.973Z,16.60
2022-08-28T20:41:49.215Z,16.70
2022-08-28T20:44:19.634Z,16.60
2022-08-28T20:46:51.044Z,16.60
2022-08-28T20:49:21.875Z,16.60
2022-08-28T20:51:56.830Z,16.50
2022-08-28T20:54:36.927Z,16.50
2022-08-28T20:57:07.492Z,16.50
2022-08-28T20:59:39.857Z,16.50
2022-08-28T21:02:18.371Z,16.40
2022-08-28T21:04:46.641Z,16.40
2022-08-28T21:07:15.758Z,16.40
2022-08-28T21:10:04.086Z,16.30
2022-08-28T21:12:29.812Z,16.20
2022-08-28T21:14:56.709Z,16.20
2022-08-28T21:17:29.891Z,16.10
2022-08-28T21:20:11.261Z,16.10
2022-08-28T21:22:39.691Z,16.00
2022-08-28T21:25:09.107Z,16.00
2022-08-28T21:27:36.855Z,15.90
2022-08-28T21:30:05.356Z,15.90
2022-08-28T21:32:34.042Z,15.80
2022-08-28T21:35:02.255Z,15.80
2022-08-28T21:37:29.111Z,15.70
2022-08-28T21:39:57.400Z,15.70
2022-08-28T21:42:25.081Z,15.60
2022-08-28T21:44:52.292Z,15.60
2022-08-28T21:47:22.990Z,15.50
2022-08-28T21:49:51.170Z,15.50
2022-08-28T21:52:20.043Z,15.50
2022-08-28T21:54:47.083Z,15.40
2022-08-28T21:57:15.552Z,15.40
2022-08-28T21:59:43.488Z,15.30
2022-08-28T22:02:10.400Z,15.30
2022-08-28T22:04:37.303Z,15.30
2022-08-28T22:07:04.181Z,15.30
2022-08-28T22:09:32.027Z,15.20
2022-08-28T22:11:58.844Z,15.20
2022-08-28T22:14:26.025Z,15.10
2022-08-28T22:16:52.846Z,15.10
2022-08-28T22:19:19.842Z,15.10
2022-08-28T22:22:05.139Z,15.10
2022-08-28T22:24:31.983Z,15.00
2022-08-28T22:27:00.094Z,15.00
2022-08-28T22:29:26.987Z,15.00
2022-08-28T22:31:53.810Z,14.90
2022-08-28T22:34:20.607Z,14.90
2022-08-28T22:36:47.401Z,14.80
2022-08-28T22:39:14.268Z,14.80
2022-08-28T22:41:41.975Z,14.70
2022-08-28T22:44:09.241Z,14.70
2022-08-28T22:46:36.197Z,14.70
2022-08-28T22:49:03.700Z,14.70
2022-08-28T22:51:32.819Z,14.70
2022-08-28T22:53:59.764Z,14.70
2022-08-28T22:56:26.830Z,14.70
2022-08-28T22:58:53.616Z,14.70
2022-08-28T23:01:23.543Z,14.70
2022-08-28T23:03:51.124Z,14.60
2022-08-28T23:06:18.391Z,14.70
2022-08-28T23:08:45.796Z,14.60
2022-08-28T23:11:13.247Z,14.60
2022-08-28T23:13:41.052Z,14.60
2022-08-28T23:16:08.442Z,14.50
2022-08-28T23:19:04.273Z,14.50
2022-08-28T23:21:26.301Z,14.50
2022-08-28T23:23:54.944Z,14.50
2022-08-28T23:26:22.255Z,14.40
2022-08-28T23:28:49.137Z,14.40
2022-08-28T23:31:16.443Z,14.40
2022-08-28T23:33:43.709Z,14.40
2022-08-28T23:36:11.364Z,14.30
2022-08-28T23:38:40.806Z,14.40
2022-08-28T23:41:11.165Z,14.40
2022-08-28T23:43:38.151Z,14.40
2022-08-28T23:46:06.607Z,14.40
2022-08-28T23:48:33.809Z,14.40
2022-08-28T23:51:02.472Z,14.40
2022-08-28T23:53:29.435Z,14.40
2022-08-28T23:55:59.448Z,14.40
2022-08-28T23:58:31.622Z,14.30
